createdAt,value
2022-08-22T00:03:17.332Z,2.10
2022-08-22T00:08:57.012Z,2.17
2022-08-22T00:14:14.591Z,2.30
2022-08-22T00:20:07.402Z,2.13
2022-08-22T00:25:37.006Z,2.10
2022-08-22T00:30:52.686Z,2.20
2022-08-22T00:36:07.633Z,2.30
2022-08-22T00:41:49.505Z,2.40
2022-08-22T00:47:19.532Z,2.07
2022-08-22T00:52:48.950Z,2.07
2022-08-22T00:58:12.519Z,2.77
2022-08-22T01:03:30.517Z,2.97
2022-08-22T01:08:46.328Z,2.97
2022-08-22T01:13:57.783Z,2.63
2022-08-22T01:19:11.855Z,2.50
2022-08-22T01:25:02.292Z,2.33
2022-08-22T01:30:13.362Z,2.60
2022-08-22T01:35:44.717Z,2.80
2022-08-22T01:40:54.259Z,2.60
2022-08-22T01:46:11.607Z,2.80
2022-08-22T01:51:28.742Z,2.80
2022-08-22T01:56:49.494Z,2.30
2022-08-22T02:02:18.072Z,2.70
2022-08-22T02:07:31.856Z,2.63
2022-08-22T02:12:56.853Z,2.53
2022-08-22T02:18:10.680Z,2.60
2022-08-22T02:23:33.803Z,2.60
2022-08-22T02:28:56.398Z,2.50
2022-08-22T02:34:15.289Z,2.50
2022-08-22T02:39:41.426Z,2.90
2022-08-22T02:45:05.607Z,2.07
2022-08-22T02:50:43.109Z,2.33
2022-08-22T02:55:58.974Z,2.30
2022-08-22T03:01:22.996Z,2.80
2022-08-22T03:07:01.103Z,2.53
2022-08-22T03:12:25.709Z,2.70
2022-08-22T03:17:37.476Z,2.50
2022-08-22T03:22:56.102Z,2.93
2022-08-22T03:28:07.963Z,2.87
2022-08-22T03:33:13.343Z,2.70
2022-08-22T03:38:33.669Z,2.67
2022-08-22T03:44:06.166Z,2.67
2022-08-22T03:49:32.491Z,2.97
2022-08-22T03:54:52.212Z,2.70
2022-08-22T04:00:21.142Z,2.80
2022-08-22T04:05:36.711Z,2.70
2022-08-22T04:10:57.660Z,2.47
2022-08-22T04:16:55.338Z,2.93
2022-08-22T04:22:07.689Z,2.67
2022-08-22T04:27:22.278Z,2.53
2022-08-22T04:32:36.393Z,3.23
2022-08-22T04:37:58.580Z,2.80
2022-08-22T04:43:31.668Z,3.13
2022-08-22T04:49:00.405Z,3.30
2022-08-22T04:54:31.121Z,3.20
2022-08-22T04:59:34.753Z,3.30
2022-08-22T05:04:48.625Z,3.73
2022-08-22T05:10:11.765Z,3.13
2022-08-22T05:15:23.237Z,3.90
2022-08-22T05:20:28.937Z,3.20
2022-08-22T05:25:34.247Z,3.20
2022-08-22T05:30:39.818Z,3.47
2022-08-22T05:35:55.844Z,3.10
2022-08-22T05:41:10.273Z,2.93
2022-08-22T05:46:43.290Z,3.10
2022-08-22T05:51:53.523Z,3.30
2022-08-22T05:57:18.690Z,3.30
2022-08-22T06:02:23.719Z,2.97
2022-08-22T06:07:35.988Z,2.90
2022-08-22T06:12:44.113Z,3.63
2022-08-22T06:18:05.446Z,3.53
2022-08-22T06:23:09.019Z,3.73
2022-08-22T06:28:19.182Z,4.00
2022-08-22T06:33:30.902Z,4.57
2022-08-22T06:38:52.925Z,3.60
2022-08-22T06:43:56.278Z,4.43
2022-08-22T06:49:00.510Z,3.77
2022-08-22T06:54:06.739Z,4.30
2022-08-22T06:59:13.929Z,4.40
2022-08-22T07:04:17.095Z,4.60
2022-08-22T07:09:34.586Z,4.10
2022-08-22T07:14:42.906Z,4.83
2022-08-22T07:19:59.345Z,4.77
2022-08-22T07:25:14.374Z,4.30
2022-08-22T07:30:28.197Z,4.77
2022-08-22T07:35:37.066Z,4.30
2022-08-22T07:40:56.331Z,3.90
2022-08-22T07:46:00.953Z,4.23
2022-08-22T07:51:14.016Z,4.00
2022-08-22T07:56:26.303Z,3.80
2022-08-22T08:01:29.584Z,4.33
2022-08-22T08:06:34.928Z,3.87
2022-08-22T08:11:44.054Z,4.30
2022-08-22T08:17:03.973Z,4.13
2022-08-22T08:22:29.362Z,4.43
2022-08-22T08:27:55.973Z,4.40
2022-08-22T08:33:25.349Z,4.37
2022-08-22T08:38:33.635Z,4.23
2022-08-22T08:43:55.506Z,4.30
2022-08-22T08:49:24.875Z,4.77
2022-08-22T08:55:21.870Z,4.20
2022-08-22T09:01:02.152Z,4.10
2022-08-22T09:06:35.029Z,4.83
2022-08-22T09:12:03.745Z,3.77
2022-08-22T09:17:34.711Z,4.13
2022-08-22T09:23:34.810Z,4.23
2022-08-22T09:28:40.214Z,4.13
2022-08-22T09:34:10.439Z,4.27
2022-08-22T09:39:25.800Z,4.50
2022-08-22T09:44:42.609Z,4.70
2022-08-22T09:50:06.622Z,4.43
2022-08-22T09:55:40.850Z,4.07
2022-08-22T10:00:55.634Z,4.60
2022-08-22T10:06:06.715Z,4.90
2022-08-22T10:11:54.245Z,4.10
2022-08-22T10:17:21.948Z,4.93
2022-08-22T10:22:33.317Z,4.40
2022-08-22T10:28:08.536Z,4.30
2022-08-22T10:33:22.834Z,4.03
2022-08-22T10:38:43.878Z,3.70
2022-08-22T10:44:01.172Z,4.37
2022-08-22T10:49:14.309Z,4.07
2022-08-22T10:54:37.092Z,3.70
2022-08-22T11:00:01.161Z,4.10
2022-08-22T11:05:29.522Z,4.17
2022-08-22T11:10:54.984Z,3.50
2022-08-22T11:16:15.850Z,3.90
2022-08-22T11:21:51.017Z,3.30
2022-08-22T11:27:14.450Z,3.37
2022-08-22T11:32:42.134Z,2.97
2022-08-22T11:38:01.704Z,2.80
2022-08-22T11:43:23.687Z,2.90
2022-08-22T11:48:51.447Z,2.77
2022-08-22T11:54:07.013Z,2.87
2022-08-22T11:59:22.944Z,3.30
2022-08-22T12:04:46.440Z,2.60
2022-08-22T12:09:55.993Z,2.70
2022-08-22T12:15:09.145Z,2.33
2022-08-22T12:20:16.841Z,2.53
2022-08-22T12:25:32.615Z,2.30
2022-08-22T12:30:47.822Z,2.70
2022-08-22T12:36:12.651Z,2.90
2022-08-22T12:41:40.675Z,2.67
2022-08-22T12:47:36.935Z,2.90
2022-08-22T12:52:47.457Z,2.60
2022-08-22T12:58:01.895Z,3.08
2022-08-22T13:03:26.949Z,2.80
2022-08-22T13:08:38.518Z,2.40
2022-08-22T13:13:56.598Z,2.33
2022-08-22T13:19:07.734Z,2.17
2022-08-22T13:24:38.233Z,2.20
2022-08-22T13:29:49.355Z,2.58
2022-08-22T13:34:55.553Z,2.42
2022-08-22T13:40:05.977Z,2.55
2022-08-22T13:45:22.849Z,2.25
2022-08-22T13:50:30.026Z,2.47
2022-08-22T13:55:49.157Z,2.10
2022-08-22T14:01:05.949Z,1.92
2022-08-22T14:06:36.929Z,2.35
2022-08-22T14:11:49.544Z,2.20
2022-08-22T14:16:54.302Z,2.45
2022-08-22T14:22:10.019Z,2.22
2022-08-22T14:27:32.607Z,2.30
2022-08-22T14:32:47.204Z,2.10
2022-08-22T14:37:54.976Z,2.35
2022-08-22T14:43:33.907Z,2.30
2022-08-22T14:48:44.254Z,2.03
2022-08-22T14:53:46.822Z,2.30
2022-08-22T14:59:02.399Z,2.50
2022-08-22T15:04:11.004Z,2.20
2022-08-22T15:09:28.521Z,2.15
2022-08-22T15:14:36.132Z,1.88
2022-08-22T15:19:44.403Z,2.22
2022-08-22T15:25:08.502Z,1.95
2022-08-22T15:30:18.825Z,2.10
2022-08-22T15:35:32.083Z,2.50
2022-08-22T15:40:41.879Z,2.25
2022-08-22T15:45:45.354Z,2.40
2022-08-22T15:51:04.661Z,2.20
2022-08-22T15:56:11.466Z,2.03
2022-08-22T16:01:22.368Z,1.90
2022-08-22T16:06:56.476Z,1.98
2022-08-22T16:12:02.393Z,1.98
2022-08-22T16:17:27.393Z,1.92
2022-08-22T16:22:58.235Z,2.20
2022-08-22T16:28:00.813Z,2.30
2022-08-22T16:33:04.437Z,2.35
2022-08-22T16:38:07.074Z,2.20
2022-08-22T16:43:14.937Z,2.03
2022-08-22T16:48:31.758Z,2.20
2022-08-22T16:53:45.683Z,1.63
2022-08-22T16:58:59.073Z,1.92
2022-08-22T17:04:26.432Z,2.30
2022-08-22T17:09:52.635Z,1.92
2022-08-22T17:15:31.664Z,1.75
2022-08-22T17:21:00.369Z,2.03
2022-08-22T17:26:18.111Z,1.90
2022-08-22T17:31:49.849Z,1.90
2022-08-22T17:37:21.557Z,1.67
2022-08-22T17:42:43.139Z,1.70
2022-08-22T17:48:01.588Z,1.83
2022-08-22T17:53:27.634Z,1.88
2022-08-22T17:58:44.029Z,2.10
2022-08-22T18:03:57.273Z,2.43
2022-08-22T18:09:17.061Z,2.75
2022-08-22T18:14:36.482Z,2.50
2022-08-22T18:19:43.956Z,2.00
2022-08-22T18:25:10.745Z,1.93
2022-08-22T18:30:23.102Z,2.17
2022-08-22T18:35:31.248Z,2.20
2022-08-22T18:40:45.514Z,2.20
2022-08-22T18:45:54.481Z,2.20
2022-08-22T18:51:24.486Z,2.10
2022-08-22T18:56:51.638Z,1.83
2022-08-22T19:02:21.372Z,1.97
2022-08-22T19:07:56.269Z,2.40
2022-08-22T19:13:39.030Z,2.27
2022-08-22T19:19:09.262Z,3.07
2022-08-22T19:24:19.966Z,5.50
2022-08-22T19:29:24.246Z,5.47
2022-08-22T19:34:29.563Z,3.43
2022-08-22T19:39:41.155Z,3.40
2022-08-22T19:44:46.256Z,3.13
2022-08-22T19:49:54.309Z,3.20
2022-08-22T19:55:08.961Z,3.20
2022-08-22T20:00:18.142Z,2.37
2022-08-22T20:05:42.121Z,2.33
2022-08-22T20:11:17.645Z,2.70
2022-08-22T20:16:23.400Z,2.83
2022-08-22T20:22:05.547Z,2.53
2022-08-22T20:27:15.712Z,2.53
2022-08-22T20:32:22.007Z,3.03
2022-08-22T20:37:45.495Z,2.53
2022-08-22T20:42:53.725Z,2.27
2022-08-22T20:47:56.383Z,2.43
2022-08-22T20:53:21.910Z,2.40
2022-08-22T20:58:28.360Z,2.23
2022-08-22T21:03:38.601Z,2.87
2022-08-22T21:08:42.346Z,3.03
2022-08-22T21:13:44.802Z,2.90
2022-08-22T21:18:52.070Z,2.73
2022-08-22T21:24:00.719Z,2.87
2022-08-22T21:29:19.802Z,2.53
2022-08-22T21:34:23.786Z,2.20
2022-08-22T21:39:34.473Z,2.50
2022-08-22T21:44:42.202Z,2.20
2022-08-22T21:50:06.481Z,2.27
2022-08-22T21:55:34.569Z,2.80
2022-08-22T22:00:49.808Z,2.70
2022-08-22T22:05:58.007Z,2.43
2022-08-22T22:11:08.658Z,2.60
2022-08-22T22:16:12.482Z,2.30
2022-08-22T22:21:14.713Z,2.70
2022-08-22T22:26:17.137Z,2.30
2022-08-22T22:31:19.421Z,2.33
2022-08-22T22:36:25.345Z,2.50
2022-08-22T22:41:27.745Z,2.70
2022-08-22T22:46:30.691Z,2.73
2022-08-22T22:51:32.949Z,2.93
2022-08-22T22:56:35.413Z,2.60
2022-08-22T23:02:01.881Z,2.73
2022-08-22T23:07:05.621Z,2.60
2022-08-22T23:12:08.315Z,2.70
2022-08-22T23:17:10.718Z,2.47
2022-08-22T23:22:15.104Z,3.23
2022-08-22T23:27:17.569Z,2.60
2022-08-22T23:32:20.144Z,3.00
2022-08-22T23:37:23.051Z,2.73
2022-08-22T23:42:25.800Z,2.87
2022-08-22T23:47:28.083Z,2.90
2022-08-22T23:52:30.291Z,2.73
2022-08-22T23:57:32.707Z,2.90
